Terminal Aerodrome Forecast
Issued by NWS Twin Cities, MN

Home | Current Version | Previous Version | Graphics & Text | Print | Product List | Glossary On
Versions: 1 2 3 4 5 6 7 8 9 10 11 12 13 14 15 16 17 18 19
853
FTUS43 KMPX 051120
TAFEAU
TAF
KEAU 051120Z 0512/0612 21003KT P6SM FEW150
     FM051600 18007KT P6SM OVC070
      TEMPO 0522/0602 6SM -SN OVC025
     FM060200 28005KT P6SM BKN025
     FM060700 26005KT P6SM FEW050=

USA.gov is the U.S. government's official web portal to all federal, state and local government web resources and services.